Terminal Aerodrome Forecast
Issued by NWS

Home | Current Version | Previous Version | Text Only | Print | Product List | Glossary Off
Versions: 1 2 3 4 5 6 7 8 9 10 11 12 13 14 15 16 17 18 19 20 21 22 23 24 25 26 27 28

000
FTUS43 KGRB 181700 RRA
TAFATW
TAF
KATW 181744Z 1818/1918 16006KT P6SM OVC024
     FM182000 17007KT P6SM SCT025 BKN035
      TEMPO 1821/1901 3SM -TSRA BKN020CB
     FM190100 17003KT 4SM BR VCTS BKN025CB
     FM191400 22006KT 6SM BR VCSH SCT025 BKN040=

USA.gov is the U.S. government's official web portal to all federal, state and local government web resources and services.